createdAt,value
2022-12-01T00:01:02.944Z,30.38
2022-12-01T00:03:32.980Z,38.55
2022-12-01T00:06:01.153Z,31.55
2022-12-01T00:08:28.994Z,31.57
2022-12-01T00:10:55.534Z,30.58
2022-12-01T00:13:22.292Z,38.00
2022-12-01T00:15:48.678Z,31.42
2022-12-01T00:18:15.069Z,31.20
2022-12-01T00:20:41.400Z,34.63
2022-12-01T00:23:07.749Z,34.80
2022-12-01T00:25:34.119Z,37.05
2022-12-01T00:28:00.587Z,30.05
2022-12-01T00:30:26.968Z,31.73
2022-12-01T00:32:53.296Z,33.30
2022-12-01T00:35:19.692Z,31.80
2022-12-01T00:37:46.067Z,31.02
2022-12-01T00:40:13.046Z,37.22
2022-12-01T00:42:39.384Z,33.55
2022-12-01T00:45:06.329Z,33.57
2022-12-01T00:47:32.658Z,31.92
2022-12-01T00:49:59.047Z,33.47
2022-12-01T00:52:25.417Z,34.38
2022-12-01T00:54:51.743Z,30.67
2022-12-01T00:57:18.061Z,34.53
2022-12-01T00:59:44.372Z,34.38
2022-12-01T01:02:10.824Z,33.53
2022-12-01T01:04:37.575Z,27.98
2022-12-01T01:07:03.979Z,31.08
2022-12-01T01:09:31.759Z,29.10
2022-12-01T01:11:58.115Z,27.55
2022-12-01T01:14:24.549Z,29.90
2022-12-01T01:16:51.106Z,30.38
2022-12-01T01:19:17.908Z,38.30
2022-12-01T01:21:44.360Z,33.43
2022-12-01T01:24:10.727Z,31.35
2022-12-01T01:26:37.813Z,31.88
2022-12-01T01:29:09.142Z,31.25
2022-12-01T01:31:36.516Z,35.42
2022-12-01T01:34:03.745Z,34.17
2022-12-01T01:36:30.233Z,31.52
2022-12-01T01:38:56.727Z,35.83
2022-12-01T01:41:23.707Z,36.17
2022-12-01T01:43:59.027Z,34.95
2022-12-01T01:46:35.136Z,33.93
2022-12-01T01:49:08.195Z,34.85
2022-12-01T01:51:48.942Z,35.53
2022-12-01T01:54:32.988Z,33.47
2022-12-01T01:57:01.606Z,34.67
2022-12-01T01:59:43.961Z,36.10
2022-12-01T02:02:12.217Z,35.67
2022-12-01T02:04:42.134Z,34.30
2022-12-01T02:07:09.823Z,39.03
2022-12-01T02:09:36.530Z,39.53
2022-12-01T02:12:21.254Z,36.10
2022-12-01T02:15:10.590Z,32.53
2022-12-01T02:17:56.874Z,39.72
2022-12-01T02:20:26.348Z,32.33
2022-12-01T02:23:25.645Z,34.45
2022-12-01T02:26:10.872Z,38.47
2022-12-01T02:28:53.700Z,36.83
2022-12-01T02:31:46.087Z,36.47
2022-12-01T02:34:30.077Z,34.53
2022-12-01T02:37:35.236Z,35.03
2022-12-01T02:40:25.560Z,36.53
2022-12-01T02:43:23.016Z,40.97
2022-12-01T02:45:56.201Z,33.15
2022-12-01T02:48:30.196Z,33.40
2022-12-01T02:51:00.801Z,35.25
2022-12-01T02:53:27.262Z,41.43
2022-12-01T02:55:57.660Z,36.15
2022-12-01T02:58:24.201Z,40.17
2022-12-01T03:01:18.328Z,33.72
2022-12-01T03:03:50.738Z,36.70
2022-12-01T03:06:36.839Z,38.33
2022-12-01T03:09:33.505Z,41.85
2022-12-01T03:12:30.879Z,37.78
2022-12-01T03:15:13.094Z,43.90
2022-12-01T03:18:04.247Z,43.85
2022-12-01T03:20:54.283Z,37.60
2022-12-01T03:23:25.234Z,38.67
2022-12-01T03:25:54.503Z,40.22
2022-12-01T03:28:28.741Z,39.05
2022-12-01T03:31:00.464Z,41.60
2022-12-01T03:33:50.610Z,34.97
2022-12-01T03:36:25.476Z,39.72
2022-12-01T03:38:59.756Z,38.17
2022-12-01T03:41:35.293Z,34.60
2022-12-01T03:44:08.920Z,37.45
2022-12-01T03:46:41.170Z,41.03
2022-12-01T03:49:09.752Z,38.28
2022-12-01T03:51:50.560Z,40.47
2022-12-01T03:54:33.582Z,40.00
2022-12-01T03:57:05.332Z,40.97
2022-12-01T03:59:35.844Z,35.70
2022-12-01T04:02:02.398Z,39.22
2022-12-01T04:04:28.986Z,41.72
2022-12-01T04:06:55.383Z,35.78
2022-12-01T04:09:21.830Z,39.60
2022-12-01T04:12:06.911Z,41.47
2022-12-01T04:14:33.527Z,36.60
2022-12-01T04:16:59.978Z,39.22
2022-12-01T04:19:26.357Z,32.33
2022-12-01T04:21:52.740Z,38.25
2022-12-01T04:24:19.133Z,39.20
2022-12-01T04:26:46.101Z,35.85
2022-12-01T04:29:14.486Z,42.03
2022-12-01T04:31:41.078Z,40.45
2022-12-01T04:34:08.232Z,42.20
2022-12-01T04:36:35.256Z,41.23
2022-12-01T04:39:02.383Z,41.72
2022-12-01T04:41:29.703Z,40.50
2022-12-01T04:43:56.457Z,47.53
2022-12-01T04:46:24.349Z,41.28
2022-12-01T04:48:51.145Z,38.80
2022-12-01T04:51:18.230Z,40.83
2022-12-01T04:53:44.732Z,40.90
2022-12-01T04:56:11.306Z,40.42
2022-12-01T04:58:38.539Z,39.85
2022-12-01T05:01:11.890Z,41.10
2022-12-01T05:03:44.309Z,38.72
2022-12-01T05:06:17.187Z,46.65
2022-12-01T05:08:43.724Z,40.22
2022-12-01T05:11:12.249Z,39.25
2022-12-01T05:13:40.236Z,41.27
2022-12-01T05:16:14.126Z,37.35
2022-12-01T05:18:41.222Z,42.90
2022-12-01T05:21:11.084Z,40.22
2022-12-01T05:23:39.040Z,43.50
2022-12-01T05:26:07.720Z,37.93
2022-12-01T05:28:34.708Z,41.97
2022-12-01T05:31:01.436Z,40.28
2022-12-01T05:33:29.048Z,41.40
2022-12-01T05:35:55.727Z,43.00
2022-12-01T05:38:22.187Z,42.63
2022-12-01T05:40:52.631Z,44.80
2022-12-01T05:43:25.230Z,41.72
2022-12-01T05:45:55.412Z,38.60
2022-12-01T05:48:22.073Z,42.58
2022-12-01T05:50:48.552Z,42.57
2022-12-01T05:53:15.717Z,40.90
2022-12-01T05:55:42.380Z,42.63
2022-12-01T05:58:09.584Z,37.90
2022-12-01T06:00:43.729Z,43.22
2022-12-01T06:03:11.961Z,48.17
2022-12-01T06:05:38.403Z,42.30
2022-12-01T06:08:05.020Z,49.78
2022-12-01T06:10:31.415Z,42.10
2022-12-01T06:12:57.844Z,40.97
2022-12-01T06:15:24.410Z,39.57
2022-12-01T06:17:50.847Z,33.75
2022-12-01T06:20:17.339Z,49.03
2022-12-01T06:22:43.714Z,43.53
2022-12-01T06:25:11.004Z,49.10
2022-12-01T06:27:37.574Z,50.73
2022-12-01T06:30:05.386Z,45.25
2022-12-01T06:32:31.838Z,44.20
2022-12-01T06:34:58.261Z,41.80
2022-12-01T06:37:24.850Z,46.90
2022-12-01T06:39:52.501Z,42.90
2022-12-01T06:42:18.952Z,50.78
2022-12-01T06:44:46.234Z,45.88
2022-12-01T06:47:12.699Z,36.85
2022-12-01T06:49:39.181Z,43.97
2022-12-01T06:52:05.703Z,51.33
2022-12-01T06:54:32.121Z,50.13
2022-12-01T06:56:58.601Z,47.83
2022-12-01T06:59:26.120Z,44.65
2022-12-01T07:01:53.030Z,51.88
2022-12-01T07:04:19.743Z,43.63
2022-12-01T07:06:46.187Z,43.90
2022-12-01T07:09:12.622Z,48.67
2022-12-01T07:11:39.217Z,46.42
2022-12-01T07:14:05.984Z,54.95
2022-12-01T07:16:32.483Z,42.53
2022-12-01T07:18:59.968Z,50.90
2022-12-01T07:21:26.377Z,49.85
2022-12-01T07:23:52.861Z,48.22
2022-12-01T07:26:19.346Z,48.20
2022-12-01T07:28:45.913Z,45.73
2022-12-01T07:31:17.960Z,47.85
2022-12-01T07:33:44.604Z,49.33
2022-12-01T07:36:13.134Z,47.60
2022-12-01T07:38:40.234Z,49.00
2022-12-01T07:41:14.884Z,53.23
2022-12-01T07:43:41.687Z,50.85
2022-12-01T07:46:11.076Z,49.75
2022-12-01T07:48:38.966Z,48.17
2022-12-01T07:51:11.427Z,49.15
2022-12-01T07:53:38.299Z,46.90
2022-12-01T07:56:08.554Z,47.03
2022-12-01T07:58:35.847Z,46.25
2022-12-01T08:01:07.431Z,41.42
2022-12-01T08:03:34.011Z,44.17
2022-12-01T08:06:01.363Z,43.93
2022-12-01T08:08:27.905Z,38.58
2022-12-01T08:10:54.415Z,49.22
2022-12-01T08:13:23.098Z,48.53
2022-12-01T08:15:49.744Z,49.78
2022-12-01T08:18:16.152Z,45.53
2022-12-01T08:20:42.498Z,43.58
2022-12-01T08:23:08.948Z,41.20
2022-12-01T08:25:35.425Z,44.28
2022-12-01T08:28:02.121Z,49.13
2022-12-01T08:30:28.882Z,47.20
2022-12-01T08:32:57.092Z,46.70
2022-12-01T08:35:24.819Z,43.45
2022-12-01T08:37:54.256Z,42.78
2022-12-01T08:40:21.838Z,47.38
2022-12-01T08:42:48.234Z,46.63
2022-12-01T08:45:14.771Z,47.38
2022-12-01T08:47:41.174Z,47.72
2022-12-01T08:50:08.083Z,49.20
2022-12-01T08:52:35.037Z,48.95
2022-12-01T08:55:02.212Z,51.53
2022-12-01T08:57:31.999Z,46.95
2022-12-01T08:59:58.465Z,48.85
2022-12-01T09:02:25.155Z,45.30
2022-12-01T09:04:51.816Z,45.05
2022-12-01T09:07:24.624Z,46.93
2022-12-01T09:09:52.908Z,44.72
2022-12-01T09:12:19.653Z,40.00
2022-12-01T09:14:48.257Z,47.47
2022-12-01T09:17:16.071Z,47.50
2022-12-01T09:19:43.760Z,47.20
2022-12-01T09:22:11.352Z,45.13
2022-12-01T09:24:38.210Z,45.47
2022-12-01T09:27:05.461Z,41.90
2022-12-01T09:29:32.680Z,42.63
2022-12-01T09:32:00.457Z,45.47
2022-12-01T09:34:27.999Z,53.80
2022-12-01T09:36:57.679Z,44.67
2022-12-01T09:39:24.672Z,46.25
2022-12-01T09:42:01.497Z,40.88
2022-12-01T09:44:36.092Z,46.87
2022-12-01T09:47:12.527Z,46.55
2022-12-01T09:49:48.052Z,49.90
2022-12-01T09:52:17.899Z,39.28
2022-12-01T09:54:45.238Z,44.63
2022-12-01T09:57:18.135Z,44.90
2022-12-01T09:59:46.321Z,43.88
2022-12-01T10:02:36.286Z,44.70
2022-12-01T10:05:07.064Z,42.65
2022-12-01T10:07:40.356Z,50.33
2022-12-01T10:10:11.696Z,47.20
2022-12-01T10:12:40.703Z,44.03
2022-12-01T10:15:13.204Z,47.67
2022-12-01T10:17:52.855Z,51.10
2022-12-01T10:20:28.525Z,41.78
2022-12-01T10:23:30.367Z,43.60
2022-12-01T10:26:07.666Z,41.13
2022-12-01T10:28:58.023Z,45.97
2022-12-01T10:31:34.684Z,50.38
2022-12-01T10:34:16.958Z,49.00
2022-12-01T10:36:43.524Z,47.20
2022-12-01T10:39:18.928Z,47.65
2022-12-01T10:41:47.900Z,47.22
2022-12-01T10:44:15.349Z,47.75
2022-12-01T10:46:50.224Z,47.65
2022-12-01T10:49:18.309Z,42.90
2022-12-01T10:51:51.730Z,47.97
2022-12-01T10:54:19.149Z,51.10
2022-12-01T10:56:49.343Z,41.92
2022-12-01T10:59:48.197Z,44.20
2022-12-01T11:02:19.363Z,43.50
2022-12-01T11:04:55.350Z,47.85
2022-12-01T11:07:29.697Z,51.47
2022-12-01T11:10:07.463Z,40.63
2022-12-01T11:12:34.206Z,40.03
2022-12-01T11:15:01.947Z,43.43
2022-12-01T11:17:39.384Z,43.45
2022-12-01T11:20:29.512Z,37.83
2022-12-01T11:23:24.416Z,47.53
2022-12-01T11:26:23.717Z,41.50
2022-12-01T11:29:06.793Z,45.80
2022-12-01T11:31:38.281Z,41.38
2022-12-01T11:34:08.514Z,43.85
2022-12-01T11:36:38.806Z,44.05
2022-12-01T11:39:05.278Z,42.17
2022-12-01T11:41:37.852Z,45.10
2022-12-01T11:44:22.421Z,43.10
2022-12-01T11:47:01.646Z,40.33
2022-12-01T11:49:47.091Z,39.85
2022-12-01T11:52:36.459Z,42.30
2022-12-01T11:55:23.144Z,39.43
2022-12-01T11:57:52.625Z,41.65
2022-12-01T12:00:22.585Z,39.78
2022-12-01T12:03:00.856Z,40.53
2022-12-01T12:06:18.166Z,38.28
2022-12-01T12:09:16.277Z,37.80
2022-12-01T12:12:12.132Z,43.25
2022-12-01T12:14:46.520Z,40.90
2022-12-01T12:17:29.322Z,38.65
2022-12-01T12:20:29.960Z,37.42
2022-12-01T12:23:24.636Z,35.17
2022-12-01T12:26:12.596Z,35.80
2022-12-01T12:29:07.075Z,41.08
2022-12-01T12:32:05.933Z,37.40
2022-12-01T12:34:56.071Z,35.97
2022-12-01T12:37:48.863Z,31.10
2022-12-01T12:40:21.429Z,35.08
2022-12-01T12:43:16.315Z,38.65
2022-12-01T12:46:02.109Z,35.00
2022-12-01T12:48:36.060Z,39.50
2022-12-01T12:51:18.983Z,37.97
2022-12-01T12:53:54.798Z,38.53
2022-12-01T12:56:25.358Z,37.25
2022-12-01T12:58:54.340Z,37.45
2022-12-01T13:01:41.805Z,39.72
2022-12-01T13:04:17.663Z,37.37
2022-12-01T13:07:03.480Z,33.50
2022-12-01T13:09:45.799Z,41.67
2022-12-01T13:12:23.972Z,36.42
2022-12-01T13:15:01.454Z,36.33
2022-12-01T13:17:37.023Z,36.47
2022-12-01T13:20:07.344Z,37.75
2022-12-01T13:22:35.910Z,35.53
2022-12-01T13:25:03.983Z,33.47
2022-12-01T13:27:35.001Z,34.30
2022-12-01T13:30:01.867Z,36.90
2022-12-01T13:32:37.734Z,30.52
2022-12-01T13:35:22.480Z,36.42
2022-12-01T13:37:49.149Z,35.33
2022-12-01T13:40:29.452Z,32.22
2022-12-01T13:43:06.975Z,31.37
2022-12-01T13:45:37.302Z,36.72
2022-12-01T13:48:06.131Z,36.13
2022-12-01T13:50:55.170Z,39.50
2022-12-01T13:53:34.279Z,36.20
2022-12-01T13:56:06.056Z,34.10
2022-12-01T13:58:32.672Z,36.70
2022-12-01T14:01:21.277Z,36.72
2022-12-01T14:04:03.032Z,33.63
2022-12-01T14:06:46.394Z,33.95
2022-12-01T14:09:15.828Z,31.33
2022-12-01T14:11:56.980Z,33.42
2022-12-01T14:14:26.317Z,38.20
2022-12-01T14:16:58.894Z,32.90
2022-12-01T14:19:43.930Z,35.15
2022-12-01T14:22:32.079Z,28.67
2022-12-01T14:24:59.626Z,32.50
2022-12-01T14:27:54.472Z,32.13
2022-12-01T14:30:39.325Z,33.58
2022-12-01T14:33:39.785Z,28.13
2022-12-01T14:36:14.037Z,30.67
2022-12-01T14:38:40.803Z,33.70
2022-12-01T14:41:10.540Z,37.63
2022-12-01T14:43:59.521Z,31.75
2022-12-01T14:46:30.799Z,29.88
2022-12-01T14:48:58.607Z,32.57
2022-12-01T14:51:34.520Z,32.22
2022-12-01T14:54:06.556Z,31.65
2022-12-01T14:56:34.263Z,31.88
2022-12-01T14:59:13.682Z,33.10
2022-12-01T15:01:40.927Z,28.77
2022-12-01T15:04:07.390Z,30.65
2022-12-01T15:06:35.871Z,28.15
2022-12-01T15:09:33.076Z,29.02
2022-12-01T15:12:00.914Z,30.58
2022-12-01T15:14:35.583Z,29.20
2022-12-01T15:17:05.108Z,28.25
2022-12-01T15:19:33.478Z,32.70
2022-12-01T15:22:04.972Z,30.60
2022-12-01T15:24:33.903Z,31.27
2022-12-01T15:27:04.035Z,33.13
2022-12-01T15:29:54.671Z,27.25
2022-12-01T15:32:23.257Z,32.33
2022-12-01T15:34:55.885Z,36.03
2022-12-01T15:37:26.691Z,31.58
2022-12-01T15:40:47.791Z,32.33
2022-12-01T15:43:13.511Z,30.85
2022-12-01T15:45:50.529Z,28.35
2022-12-01T15:48:26.152Z,35.33
2022-12-01T15:51:17.054Z,28.98
2022-12-01T15:53:56.335Z,31.33
2022-12-01T15:56:34.729Z,30.55
2022-12-01T15:59:39.790Z,30.80
2022-12-01T16:02:21.426Z,33.55
2022-12-01T16:04:48.807Z,30.88
2022-12-01T16:07:15.866Z,27.63
2022-12-01T16:09:58.595Z,28.42
2022-12-01T16:12:27.572Z,32.97
2022-12-01T16:14:59.868Z,27.17
2022-12-01T16:17:46.028Z,28.50
2022-12-01T16:20:24.545Z,27.90
2022-12-01T16:22:58.829Z,25.23
2022-12-01T16:25:32.650Z,23.65
2022-12-01T16:27:59.729Z,25.52
2022-12-01T16:30:33.994Z,30.40
2022-12-01T16:33:06.692Z,26.40
2022-12-01T16:35:34.070Z,26.75
2022-12-01T16:38:11.833Z,24.90
2022-12-01T16:40:41.739Z,28.27
2022-12-01T16:43:14.027Z,27.13
2022-12-01T16:45:40.493Z,23.70
2022-12-01T16:48:09.424Z,26.27
2022-12-01T16:50:36.124Z,25.67
2022-12-01T16:53:02.542Z,26.15
2022-12-01T16:55:39.217Z,25.20
2022-12-01T16:58:05.759Z,20.50
2022-12-01T17:00:32.923Z,26.60
2022-12-01T17:02:59.986Z,25.25
2022-12-01T17:05:26.502Z,24.70
2022-12-01T17:07:53.204Z,26.15
2022-12-01T17:10:20.476Z,27.03
2022-12-01T17:12:46.981Z,25.77
2022-12-01T17:15:13.383Z,28.65
2022-12-01T17:17:39.886Z,30.90
2022-12-01T17:20:07.681Z,27.58
2022-12-01T17:22:34.617Z,28.67
2022-12-01T17:25:02.273Z,29.35
2022-12-01T17:27:29.603Z,30.17
2022-12-01T17:29:56.103Z,26.45
2022-12-01T17:32:22.573Z,25.42
2022-12-01T17:34:49.352Z,28.77
2022-12-01T17:37:20.667Z,26.58
2022-12-01T17:39:47.845Z,27.42
2022-12-01T17:42:14.289Z,29.15
2022-12-01T17:44:40.719Z,26.58
2022-12-01T17:47:07.381Z,29.70
2022-12-01T17:49:36.337Z,26.50
2022-12-01T17:52:04.762Z,25.67
2022-12-01T17:54:31.391Z,29.27
2022-12-01T17:56:57.833Z,28.02
2022-12-01T17:59:24.464Z,27.30
2022-12-01T18:01:50.925Z,27.95
2022-12-01T18:04:17.386Z,27.58
2022-12-01T18:06:44.242Z,32.00
2022-12-01T18:09:12.461Z,38.90
2022-12-01T18:11:38.900Z,31.00
2022-12-01T18:14:05.326Z,29.45
2022-12-01T18:16:32.366Z,32.47
2022-12-01T18:19:00.158Z,33.42
2022-12-01T18:21:27.896Z,34.33
2022-12-01T18:23:58.170Z,34.37
2022-12-01T18:26:25.584Z,30.95
2022-12-01T18:28:54.888Z,27.80
2022-12-01T18:31:21.439Z,29.10
2022-12-01T18:33:47.979Z,31.75
2022-12-01T18:36:18.236Z,30.93
2022-12-01T18:38:46.808Z,31.05
2022-12-01T18:41:13.849Z,28.13
2022-12-01T18:43:40.380Z,26.83
2022-12-01T18:46:07.228Z,30.55
2022-12-01T18:48:35.084Z,25.50
2022-12-01T18:51:03.862Z,23.13
2022-12-01T18:53:34.830Z,31.42
2022-12-01T18:56:05.694Z,33.67
2022-12-01T18:58:32.861Z,39.30
2022-12-01T19:01:00.651Z,41.67
2022-12-01T19:03:31.581Z,42.03
2022-12-01T19:05:58.420Z,34.83
2022-12-01T19:08:25.123Z,35.63
2022-12-01T19:10:59.523Z,35.55
2022-12-01T19:13:26.049Z,32.73
2022-12-01T19:15:52.522Z,28.00
2022-12-01T19:18:18.964Z,29.65
2022-12-01T19:20:45.418Z,29.35
2022-12-01T19:23:11.865Z,31.48
2022-12-01T19:25:38.396Z,32.70
2022-12-01T19:28:04.840Z,31.20
2022-12-01T19:30:31.409Z,30.02
2022-12-01T19:32:57.835Z,29.50
2022-12-01T19:35:24.271Z,31.13
2022-12-01T19:37:52.118Z,31.90
2022-12-01T19:40:18.917Z,32.00
2022-12-01T19:42:45.478Z,33.78
2022-12-01T19:45:11.878Z,34.33
2022-12-01T19:47:39.318Z,31.98
2022-12-01T19:50:06.275Z,29.57
2022-12-01T19:52:33.980Z,32.65
2022-12-01T19:55:00.373Z,44.38
2022-12-01T19:57:29.669Z,150.00
2022-12-01T19:59:56.056Z,100.78
2022-12-01T20:02:28.868Z,90.40
2022-12-01T20:04:56.569Z,54.58
2022-12-01T20:07:23.109Z,47.05
2022-12-01T20:09:50.686Z,54.53
2022-12-01T20:12:19.911Z,52.97
2022-12-01T20:14:46.426Z,47.13
2022-12-01T20:17:16.107Z,42.10
2022-12-01T20:19:42.621Z,38.47
2022-12-01T20:22:09.267Z,35.92
2022-12-01T20:24:41.328Z,38.95
2022-12-01T20:27:08.175Z,38.87
2022-12-01T20:29:35.152Z,42.47
2022-12-01T20:32:03.127Z,44.28
2022-12-01T20:34:32.817Z,45.45
2022-12-01T20:36:59.714Z,34.70
2022-12-01T20:39:27.154Z,37.20
2022-12-01T20:41:53.696Z,33.85
2022-12-01T20:44:20.221Z,32.05
2022-12-01T20:46:47.560Z,34.88
2022-12-01T20:49:16.180Z,37.58
2022-12-01T20:51:43.105Z,33.87
2022-12-01T20:54:27.741Z,33.25
2022-12-01T20:56:55.053Z,36.40
2022-12-01T20:59:22.793Z,33.80
2022-12-01T21:01:49.430Z,30.80
2022-12-01T21:04:15.866Z,32.83
2022-12-01T21:06:42.346Z,36.08
2022-12-01T21:09:08.776Z,39.53
2022-12-01T21:12:01.848Z,41.22
2022-12-01T21:14:35.342Z,36.53
2022-12-01T21:17:12.385Z,29.83
2022-12-01T21:20:01.778Z,32.45
2022-12-01T21:22:28.291Z,34.60
2022-12-01T21:25:07.520Z,33.90
2022-12-01T21:27:33.999Z,36.65
2022-12-01T21:30:00.715Z,32.57
2022-12-01T21:32:31.377Z,39.63
2022-12-01T21:35:07.459Z,32.53
2022-12-01T21:37:33.988Z,38.58
2022-12-01T21:40:00.405Z,33.67
2022-12-01T21:42:29.858Z,31.83
2022-12-01T21:44:56.800Z,35.60
2022-12-01T21:47:26.210Z,36.63
2022-12-01T21:49:55.984Z,38.10
2022-12-01T21:52:30.007Z,32.30
2022-12-01T21:55:02.238Z,36.27
2022-12-01T21:57:47.145Z,34.38
2022-12-01T22:00:28.125Z,36.10
2022-12-01T22:03:04.017Z,37.45
2022-12-01T22:05:36.677Z,36.30
2022-12-01T22:08:11.868Z,35.43
2022-12-01T22:11:04.541Z,37.50
2022-12-01T22:13:46.385Z,37.92
2022-12-01T22:16:25.679Z,35.95
2022-12-01T22:18:54.941Z,34.67
2022-12-01T22:21:32.031Z,33.40
2022-12-01T22:24:10.470Z,33.50
2022-12-01T22:26:38.507Z,39.03
2022-12-01T22:29:26.325Z,35.20
2022-12-01T22:32:11.134Z,41.63
2022-12-01T22:34:38.479Z,41.97
2022-12-01T22:37:30.864Z,46.75
2022-12-01T22:39:57.407Z,45.25
2022-12-01T22:42:31.119Z,46.28
2022-12-01T22:45:01.387Z,49.00
2022-12-01T22:47:32.460Z,51.63
2022-12-01T22:49:59.148Z,48.88
2022-12-01T22:52:30.222Z,48.30
2022-12-01T22:54:56.602Z,46.40
2022-12-01T22:57:32.933Z,48.47
2022-12-01T23:00:16.059Z,48.80
2022-12-01T23:02:42.812Z,53.13
2022-12-01T23:05:22.628Z,50.03
2022-12-01T23:07:50.398Z,55.03
2022-12-01T23:10:30.318Z,49.22
2022-12-01T23:13:01.023Z,57.10
2022-12-01T23:15:33.954Z,49.28
2022-12-01T23:18:21.957Z,51.72
2022-12-01T23:20:59.956Z,54.20
2022-12-01T23:23:29.380Z,52.65
2022-12-01T23:25:56.706Z,55.27
2022-12-01T23:28:24.596Z,51.88
2022-12-01T23:30:54.795Z,54.90
2022-12-01T23:33:28.985Z,57.85
2022-12-01T23:36:04.493Z,52.53
2022-12-01T23:38:42.244Z,53.63
2022-12-01T23:41:33.085Z,53.95
2022-12-01T23:44:03.564Z,60.50
2022-12-01T23:46:30.176Z,56.08
2022-12-01T23:49:01.244Z,54.10
2022-12-01T23:51:45.266Z,59.10
2022-12-01T23:54:27.630Z,60.22
2022-12-01T23:56:57.002Z,56.03
2022-12-01T23:59:24.639Z,60.60
